Time;durP1;ratioP1;P1;durP2;ratioP2;P2;SDS_P1;SDS_P2;PMS_P1;PMS_P2;Temp;Humidity;BMP_temperature;BMP_pressure;BME280_temperature;BME280_humidity;BME280_pressure;Samples;Min_cycle;Max_cycle;Signal;HPM_P1;HPM_P2
2022/07/20 00:00:14;;;;;;;5.23;4.50;;;;;;;18.46;100.00;97254.94;5003800;28;20405;-58
2022/07/20 00:03:38;;;;;;;5.40;5.00;;;;;;;18.52;100.00;97258.53;5004912;28;20671;-54
2022/07/20 00:06:08;;;;;;;4.70;4.30;;;;;;;18.55;100.00;97252.69;4957300;28;20962;-56
2022/07/20 00:11:22;;;;;;;7.30;4.73;;;;;;;18.58;100.00;97263.00;5004611;28;20314;-56
2022/07/20 00:13:52;;;;;;;5.93;4.80;;;;;;;18.52;100.00;97251.31;5001927;28;20251;-54
2022/07/20 00:16:20;;;;;;;4.43;4.07;;;;;;;18.49;100.00;97256.31;5004661;28;20684;-55
2022/07/20 00:18:48;;;;;;;4.30;4.00;;;;;;;18.47;100.00;97256.56;5003005;28;20688;-56
2022/07/20 00:21:19;;;;;;;5.47;4.97;;;;;;;18.42;100.00;97256.47;4957902;28;20500;-55
2022/07/20 00:23:47;;;;;;;4.50;4.20;;;;;;;18.34;100.00;97260.28;4952780;28;20893;-53
2022/07/20 00:26:15;;;;;;;4.23;4.03;;;;;;;18.30;100.00;97256.44;4999290;28;20232;-57
2022/07/20 00:28:44;;;;;;;5.63;5.23;;;;;;;18.26;100.00;97249.09;4982292;28;20207;-59
2022/07/20 00:31:12;;;;;;;5.70;4.50;;;;;;;18.22;100.00;97251.44;5000287;28;20736;-52
2022/07/20 00:33:41;;;;;;;4.53;4.00;;;;;;;18.13;100.00;97240.22;5001997;28;20458;-58
2022/07/20 00:36:09;;;;;;;4.70;4.30;;;;;;;18.04;100.00;97239.72;4980552;28;20235;-54
2022/07/20 00:38:39;;;;;;;6.07;4.70;;;;;;;18.00;100.00;97243.91;4952464;28;20282;-55
2022/07/20 00:41:07;;;;;;;5.00;4.57;;;;;;;17.97;100.00;97249.72;5001211;28;20197;-52
2022/07/20 00:43:58;;;;;;;5.53;5.00;;;;;;;17.92;100.00;97239.69;4999441;28;20330;-57
2022/07/20 00:46:27;;;;;;;7.60;5.00;;;;;;;17.94;100.00;97239.47;4999060;28;20232;-54
2022/07/20 00:48:55;;;;;;;5.47;4.90;;;;;;;17.92;100.00;97239.69;5000745;28;20686;-55
2022/07/20 00:51:24;;;;;;;4.70;4.30;;;;;;;17.92;100.00;97236.19;4978723;28;20235;-53
2022/07/20 00:53:53;;;;;;;5.67;4.30;;;;;;;17.88;100.00;97237.69;4953660;28;20639;-55
2022/07/20 00:56:22;;;;;;;5.10;4.53;;;;;;;17.85;100.00;97241.66;4998409;28;20278;-53
2022/07/20 00:58:50;;;;;;;4.97;4.43;;;;;;;17.83;100.00;97234.91;5002396;28;20232;-55
2022/07/20 01:01:19;;;;;;;5.30;4.80;;;;;;;17.79;100.00;97234.53;4997981;28;20212;-56
2022/07/20 01:03:47;;;;;;;5.37;4.97;;;;;;;17.74;100.00;97229.84;5002047;28;20318;-53
2022/07/20 01:06:16;;;;;;;5.50;5.10;;;;;;;17.61;100.00;97224.69;4977805;28;20229;-55
2022/07/20 01:08:44;;;;;;;5.00;4.47;;;;;;;17.59;100.00;97237.50;5000350;28;20200;-56
2022/07/20 01:11:14;;;;;;;5.33;4.93;;;;;;;17.55;100.00;97236.31;4967471;28;20315;-56
2022/07/20 01:13:43;;;;;;;5.80;5.30;;;;;;;17.49;100.00;97235.34;4998811;28;20205;-55
2022/07/20 01:16:11;;;;;;;5.87;4.73;;;;;;;17.41;100.00;97231.13;5000673;28;20460;-55
2022/07/20 01:18:39;;;;;;;5.37;4.37;;;;;;;17.33;100.00;97226.94;4999975;28;20214;-57
2022/07/20 01:21:09;;;;;;;4.67;4.27;;;;;;;17.28;100.00;97226.78;4982581;28;23048;-56
2022/07/20 01:23:37;;;;;;;5.27;4.97;;;;;;;17.21;100.00;97226.03;5003844;28;20213;-57
2022/07/20 01:26:05;;;;;;;5.80;5.13;;;;;;;17.17;100.00;97219.50;4951393;28;20545;-58
2022/07/20 01:28:33;;;;;;;6.00;5.40;;;;;;;17.17;100.00;97222.19;4998322;28;20291;-58
2022/07/20 01:31:01;;;;;;;5.50;5.10;;;;;;;17.09;100.00;97217.97;4997883;28;20299;-55
2022/07/20 01:33:29;;;;;;;7.87;5.50;;;;;;;17.08;100.00;97219.00;5000755;28;20721;-57
2022/07/20 01:35:57;;;;;;;5.93;5.33;;;;;;;17.00;100.00;97198.72;5002239;28;20281;-57
2022/07/20 01:38:27;;;;;;;5.03;4.67;;;;;;;17.07;100.00;97215.50;4977433;28;20211;-57
2022/07/20 01:40:55;;;;;;;8.23;5.50;;;;;;;17.04;100.00;97212.44;4950729;28;20220;-56
2022/07/20 01:43:23;;;;;;;5.60;4.90;;;;;;;17.01;100.00;97207.56;5001956;28;20277;-55
2022/07/20 01:45:51;;;;;;;5.30;4.90;;;;;;;17.00;100.00;97201.41;5001782;28;20642;-53
2022/07/20 01:48:21;;;;;;;5.47;5.00;;;;;;;16.99;100.00;97201.59;5001694;28;20232;-59
2022/07/20 01:50:49;;;;;;;5.53;4.70;;;;;;;17.02;100.00;97207.34;5004893;28;20297;-56
2022/07/20 01:53:17;;;;;;;6.07;5.47;;;;;;;17.06;100.00;97203.16;4981791;28;20601;-55
2022/07/20 01:55:47;;;;;;;5.50;5.10;;;;;;;16.96;100.00;97192.16;4998911;28;20685;-56
2022/07/20 01:58:15;;;;;;;4.63;4.23;;;;;;;17.06;100.00;97203.16;4968013;28;20209;-58
2022/07/20 02:00:43;;;;;;;5.00;4.70;;;;;;;17.04;100.00;97201.75;5000895;28;20209;-56
2022/07/20 02:03:12;;;;;;;4.87;4.50;;;;;;;17.02;100.00;97201.97;4997602;28;20227;-57
2022/07/20 02:05:40;;;;;;;5.20;4.90;;;;;;;17.03;100.00;97205.47;5002112;28;20208;-58
2022/07/20 02:08:08;;;;;;;5.83;5.33;;;;;;;17.12;100.00;97208.66;4977464;28;21071;-57
2022/07/20 02:10:37;;;;;;;5.07;4.67;;;;;;;17.13;100.00;97202.25;5005213;28;20209;-54
2022/07/20 02:13:06;;;;;;;5.47;4.97;;;;;;;17.15;100.00;97197.50;4948251;28;20928;-57
2022/07/20 02:18:21;;;;;;;5.30;4.90;;;;;;;17.07;100.00;97196.78;5003842;28;20434;-55
2022/07/20 02:20:49;;;;;;;5.60;5.00;;;;;;;17.04;100.00;97191.88;4999330;28;20493;-51
2022/07/20 02:23:17;;;;;;;5.10;4.70;;;;;;;16.94;100.00;97199.59;4980745;28;20204;-57
2022/07/20 02:25:45;;;;;;;5.07;4.67;;;;;;;16.78;100.00;97183.09;4998328;28;20240;-57
2022/07/20 02:28:14;;;;;;;6.73;4.60;;;;;;;16.73;100.00;97187.50;4948823;28;20280;-58
2022/07/20 02:30:42;;;;;;;5.60;5.10;;;;;;;16.70;100.00;97188.75;4947619;28;20591;-58
2022/07/20 02:33:10;;;;;;;5.57;5.17;;;;;;;16.64;100.00;97193.13;4997758;28;20681;-58
2022/07/20 02:35:38;;;;;;;5.50;4.90;;;;;;;16.67;100.00;97197.22;4966222;28;20407;-57
2022/07/20 02:38:06;;;;;;;5.63;5.13;;;;;;;16.69;100.00;97189.78;4997579;28;20328;-55
2022/07/20 02:40:35;;;;;;;5.40;4.83;;;;;;;16.68;100.00;97188.16;4982836;28;20291;-58
2022/07/20 02:43:03;;;;;;;4.93;4.53;;;;;;;16.73;100.00;97192.84;4999473;28;20667;-57
2022/07/20 02:45:32;;;;;;;5.00;4.40;;;;;;;16.78;100.00;97190.31;4951841;28;20586;-58
2022/07/20 02:48:03;;;;;;;5.60;4.67;;;;;;;16.81;100.00;97189.03;4978072;28;20743;-56
2022/07/20 02:50:33;;;;;;;4.70;4.40;;;;;;;16.83;100.00;97189.63;4999033;28;20578;-55
2022/07/20 02:53:02;;;;;;;5.77;4.93;;;;;;;16.81;100.00;97189.03;4998656;28;20748;-56
2022/07/20 02:55:30;;;;;;;4.90;4.40;;;;;;;16.79;100.00;97187.41;5002485;28;20212;-56
2022/07/20 02:57:58;;;;;;;5.00;4.60;;;;;;;16.75;100.00;97188.09;4999700;28;20706;-56
2022/07/20 03:00:26;;;;;;;5.93;5.27;;;;;;;16.71;100.00;97182.34;4954308;28;20977;-59
2022/07/20 03:02:56;;;;;;;5.20;4.80;;;;;;;16.67;100.00;97194.53;4981965;28;20258;-57
2022/07/20 03:05:24;;;;;;;6.50;5.83;;;;;;;16.62;100.00;97189.84;5002175;28;20729;-55
2022/07/20 03:07:52;;;;;;;5.43;5.00;;;;;;;16.54;100.00;97194.69;5000620;28;20289;-54
2022/07/20 03:10:20;;;;;;;5.57;5.17;;;;;;;16.46;100.00;97195.78;5003454;28;20442;-57
2022/07/20 03:12:48;;;;;;;7.10;5.10;;;;;;;16.37;100.00;97192.59;5005824;28;21098;-57
2022/07/20 03:15:16;;;;;;;5.43;4.50;;;;;;;16.32;100.00;97192.44;4998021;28;20247;-57
2022/07/20 03:17:46;;;;;;;6.00;4.97;;;;;;;16.26;100.00;97193.31;4932284;28;20228;-56
2022/07/20 03:20:19;;;;;;;5.20;4.80;;;;;;;16.19;100.00;97190.69;4997906;28;20669;-58
2022/07/20 03:22:48;;;;;;;5.60;5.10;;;;;;;16.15;100.00;97187.66;5005557;28;20452;-55
2022/07/20 03:25:16;;;;;;;5.80;5.40;;;;;;;16.13;100.00;97188.91;5002122;28;20894;-56
2022/07/20 03:27:44;;;;;;;6.10;5.67;;;;;;;16.03;100.00;97194.75;5006240;28;20228;-54
2022/07/20 03:30:13;;;;;;;7.20;5.40;;;;;;;15.94;100.00;97191.53;5000972;28;20518;-53
2022/07/20 03:32:41;;;;;;;6.43;6.03;;;;;;;15.86;100.00;97192.59;4959437;28;20275;-53
2022/07/20 03:35:09;;;;;;;6.13;5.53;;;;;;;15.84;100.00;97202.69;4980475;28;20887;-52
2022/07/20 03:37:39;;;;;;;5.63;5.23;;;;;;;15.80;100.00;97204.16;5005545;28;20242;-55
2022/07/20 03:40:08;;;;;;;6.00;5.50;;;;;;;15.95;100.00;97203.03;4998781;28;20291;-51
2022/07/20 03:42:36;;;;;;;6.70;5.60;;;;;;;16.01;100.00;97199.50;5007220;28;20212;-56
2022/07/20 03:45:05;;;;;;;6.33;5.83;;;;;;;15.98;100.00;97194.59;5004961;28;20267;-54
2022/07/20 03:47:33;;;;;;;5.67;5.27;;;;;;;15.98;100.00;97202.59;4957383;28;20257;-57
2022/07/20 03:50:02;;;;;;;6.30;5.70;;;;;;;15.95;100.00;97205.72;4978384;28;20282;-55
2022/07/20 03:52:30;;;;;;;6.67;5.60;;;;;;;15.98;100.00;97203.44;4984094;28;20674;-55
2022/07/20 03:55:00;;;;;;;6.23;5.73;;;;;;;16.01;100.00;97203.00;4999127;28;20585;-54
2022/07/20 03:57:29;;;;;;;6.70;6.17;;;;;;;16.08;100.00;97204.78;4983174;28;20309;-55
2022/07/20 03:59:57;;;;;;;5.97;5.47;;;;;;;16.13;100.00;97205.78;4995359;28;20208;-54
2022/07/20 04:02:26;;;;;;;6.30;5.70;;;;;;;16.06;100.00;97191.63;4983467;28;20255;-55
2022/07/20 04:04:54;;;;;;;6.53;5.90;;;;;;;16.17;100.00;97203.47;4960549;28;20765;-54
2022/07/20 04:07:22;;;;;;;6.20;5.80;;;;;;;16.22;100.00;97208.16;5003431;28;20290;-53
2022/07/20 04:09:50;;;;;;;5.93;5.47;;;;;;;16.24;100.00;97212.25;5000034;28;20326;-55
2022/07/20 04:12:21;;;;;;;5.87;5.57;;;;;;;16.29;100.00;97206.25;5005716;28;20215;-56
2022/07/20 04:14:51;;;;;;;6.03;5.57;;;;;;;16.37;100.00;97200.59;5005301;28;20657;-58
2022/07/20 04:17:20;;;;;;;6.27;5.40;;;;;;;16.41;100.00;97204.47;5006687;28;20814;-55
2022/07/20 04:19:49;;;;;;;6.90;5.93;;;;;;;16.52;100.00;97204.81;4942232;28;21079;-59
2022/07/20 04:22:17;;;;;;;5.93;5.53;;;;;;;16.63;100.00;97210.22;5004321;28;20274;-57
2022/07/20 04:24:45;;;;;;;7.07;5.17;;;;;;;16.72;100.00;97216.09;4982522;28;21977;-57
2022/07/20 04:27:13;;;;;;;5.87;5.27;;;;;;;16.89;100.00;97205.59;5006524;28;20690;-56
2022/07/20 04:29:43;;;;;;;5.80;5.27;;;;;;;16.99;100.00;97207.78;4988887;28;21142;-52
2022/07/20 04:32:11;;;;;;;5.47;5.10;;;;;;;17.07;100.00;97217.38;5006796;28;20212;-59
2022/07/20 04:34:39;;;;;;;5.73;5.27;;;;;;;17.14;100.00;97217.28;4959431;28;23036;-57
2022/07/20 04:37:10;;;;;;;5.60;5.10;;;;;;;17.26;100.00;97217.34;4933840;28;22210;-58
2022/07/20 04:39:38;;;;;;;5.87;5.37;;;;;;;17.39;100.00;97208.31;4961123;28;20306;-60
2022/07/20 04:42:07;;;;;;;6.63;5.67;;;;;;;17.54;100.00;97213.25;5005222;28;20204;-56
2022/07/20 04:44:36;;;;;;;5.63;5.10;;;;;;;17.67;100.00;97215.75;4988156;28;20232;-59
2022/07/20 04:47:06;;;;;;;6.53;5.80;;;;;;;17.81;100.00;97213.69;5003915;28;20336;-60
2022/07/20 04:49:34;;;;;;;5.77;5.27;;;;;;;17.93;100.00;97214.50;5003876;28;20321;-61
2022/07/20 04:52:02;;;;;;;5.97;5.47;;;;;;;18.09;100.00;97222.97;5007475;28;20220;-59
2022/07/20 04:54:38;;;;;;;7.83;5.33;;;;;;;18.25;100.00;97217.97;4978440;28;20314;-61
2022/07/20 04:57:06;;;;;;;6.60;6.00;;;;;;;18.37;100.00;97213.41;5000393;28;20239;-61
2022/07/20 04:59:34;;;;;;;6.40;5.80;;;;;;;18.57;100.00;97218.44;4988149;28;21254;-61
2022/07/20 05:02:02;;;;;;;5.87;5.50;;;;;;;18.73;100.00;97219.56;5004769;28;20208;-59
2022/07/20 05:04:32;;;;;;;5.73;5.23;;;;;;;18.94;100.00;97218.13;5001390;28;20318;-61
2022/07/20 05:07:01;;;;;;;5.17;4.77;;;;;;;19.14;100.00;97210.75;5004435;28;20225;-60
2022/07/20 05:09:29;;;;;;;5.80;5.00;;;;;;;19.35;100.00;97210.09;4959630;28;20691;-61
2022/07/20 05:11:57;;;;;;;5.63;5.13;;;;;;;19.52;100.00;97209.31;5008236;28;20211;-61
2022/07/20 05:14:25;;;;;;;6.03;5.00;;;;;;;19.74;100.00;97211.31;4984874;28;20595;-58
2022/07/20 05:16:54;;;;;;;5.50;5.00;;;;;;;19.92;100.00;97211.13;5004129;28;20228;-61
2022/07/20 05:19:22;;;;;;;4.97;4.30;;;;;;;20.20;100.00;97206.69;4998564;28;20255;-58
2022/07/20 05:21:51;;;;;;;6.17;4.70;;;;;;;20.49;95.69;97211.16;5006068;28;20827;-57
2022/07/20 05:24:20;;;;;;;5.23;3.90;;;;;;;20.73;91.63;97210.94;4969614;28;20655;-55
2022/07/20 05:26:48;;;;;;;6.60;5.50;;;;;;;20.86;91.87;97216.00;5000953;28;20232;-60
2022/07/20 05:29:16;;;;;;;5.27;4.60;;;;;;;21.09;91.84;97212.22;5002362;28;20227;-58
2022/07/20 05:31:45;;;;;;;4.53;4.23;;;;;;;21.31;87.50;97214.06;4985496;28;20788;-60
2022/07/20 05:34:13;;;;;;;4.40;4.10;;;;;;;21.48;81.40;97205.91;5003931;28;20228;-58
2022/07/20 05:36:41;;;;;;;4.57;4.17;;;;;;;21.62;81.93;97210.91;5003105;28;20231;-60
2022/07/20 05:39:11;;;;;;;4.07;3.73;;;;;;;21.69;80.70;97204.25;4994569;28;20484;-58
2022/07/20 05:41:40;;;;;;;3.90;3.60;;;;;;;21.86;76.97;97207.91;4981825;28;20242;-61
2022/07/20 05:44:08;;;;;;;6.47;4.33;;;;;;;22.06;78.03;97210.78;5007560;28;20388;-59
2022/07/20 05:46:36;;;;;;;4.40;4.13;;;;;;;22.21;74.81;97214.66;4984942;28;20305;-61
2022/07/20 05:49:05;;;;;;;4.17;3.80;;;;;;;22.36;72.16;97222.88;5006588;28;20207;-61
2022/07/20 05:51:34;;;;;;;4.20;3.90;;;;;;;22.56;66.78;97210.59;5001962;28;20353;-61
2022/07/20 05:54:02;;;;;;;4.47;4.03;;;;;;;22.78;65.09;97223.16;4999338;28;20232;-61
2022/07/20 05:56:32;;;;;;;3.53;3.23;;;;;;;22.98;65.51;97222.44;4955926;28;20470;-61
2022/07/20 05:59:00;;;;;;;6.77;4.10;;;;;;;23.19;63.75;97220.63;5006551;28;20208;-61
2022/07/20 06:01:28;;;;;;;6.60;4.23;;;;;;;23.26;58.79;97218.50;4981683;28;20216;-61
2022/07/20 06:03:57;;;;;;;3.97;3.67;;;;;;;23.44;59.24;97210.16;5002779;28;20595;-60
2022/07/20 06:06:25;;;;;;;5.10;4.47;;;;;;;23.64;59.30;97223.72;4999625;28;20236;-60
2022/07/20 06:08:53;;;;;;;4.63;4.33;;;;;;;23.81;58.42;97226.16;4999217;28;20200;-61
2022/07/20 06:11:43;;;;;;;5.10;3.70;;;;;;;24.02;58.26;97218.09;4958173;28;20217;-62
2022/07/20 06:14:11;;;;;;;3.60;3.40;;;;;;;24.11;57.92;97210.25;5000176;28;20964;-58
2022/07/20 06:16:39;;;;;;;4.20;3.80;;;;;;;24.10;53.81;97220.25;4986982;28;20854;-61
2022/07/20 06:19:07;;;;;;;3.60;3.40;;;;;;;24.31;55.11;97222.97;5001594;28;20204;-58
2022/07/20 06:21:36;;;;;;;4.40;4.03;;;;;;;24.42;52.16;97221.88;5003356;28;20410;-61
2022/07/20 06:24:04;;;;;;;5.60;4.70;;;;;;;24.61;50.82;97223.97;5003505;28;20361;-60
2022/07/20 06:26:33;;;;;;;4.13;3.83;;;;;;;24.67;49.99;97219.38;4956975;28;21188;-61
2022/07/20 06:29:02;;;;;;;3.93;3.33;;;;;;;24.85;50.52;97220.69;5006242;28;20209;-61
2022/07/20 06:31:30;;;;;;;3.83;3.57;;;;;;;25.09;49.23;97220.88;4987149;28;20222;-57
2022/07/20 06:34:19;;;;;;;3.67;3.47;;;;;;;25.33;48.88;97220.25;5003439;28;20812;-56
2022/07/20 06:36:47;;;;;;;3.93;3.73;;;;;;;25.46;50.60;97228.84;5003249;28;20636;-58
2022/07/20 06:39:15;;;;;;;4.53;3.73;;;;;;;25.40;47.35;97219.94;5007304;28;20206;-59
2022/07/20 06:41:43;;;;;;;6.60;3.90;;;;;;;25.48;47.19;97230.22;5007633;28;20209;-59
2022/07/20 06:44:13;;;;;;;4.47;3.90;;;;;;;25.67;45.88;97222.25;4960740;28;20212;-58
2022/07/20 06:46:41;;;;;;;3.97;3.60;;;;;;;25.83;44.27;97208.56;4939489;28;20711;-58
2022/07/20 06:49:09;;;;;;;4.10;3.70;;;;;;;25.98;44.42;97218.47;4988534;28;20371;-61
2022/07/20 06:51:37;;;;;;;5.97;3.83;;;;;;;26.00;42.76;97216.28;4968147;28;20208;-58
2022/07/20 06:54:06;;;;;;;3.50;3.30;;;;;;;26.13;43.75;97217.53;4986045;28;21005;-61
2022/07/20 06:56:41;;;;;;;3.43;3.13;;;;;;;26.39;43.48;97218.16;4977480;28;20788;-58
2022/07/20 06:59:09;;;;;;;3.90;3.53;;;;;;;26.57;41.84;97221.25;4982246;28;20292;-61
2022/07/20 07:01:39;;;;;;;3.67;3.47;;;;;;;26.77;40.90;97219.41;4941057;28;20288;-55
2022/07/20 07:04:07;;;;;;;7.10;3.63;;;;;;;26.83;39.90;97212.81;4985305;28;20800;-61
2022/07/20 07:06:35;;;;;;;3.67;3.47;;;;;;;26.99;40.49;97208.03;4988014;28;20728;-58
2022/07/20 07:09:04;;;;;;;5.93;4.40;;;;;;;26.93;43.40;97212.72;4986088;28;20471;-61
2022/07/20 07:11:32;;;;;;;4.63;4.23;;;;;;;26.91;44.18;97212.22;4989357;28;20230;-61
2022/07/20 07:14:00;;;;;;;4.70;4.30;;;;;;;26.98;44.05;97214.56;4971144;28;20742;-57
2022/07/20 07:16:29;;;;;;;4.47;4.07;;;;;;;27.08;43.49;97208.19;4947319;28;20712;-61
2022/07/20 07:18:58;;;;;;;6.17;4.10;;;;;;;27.07;44.96;97212.00;4985694;28;20215;-61
2022/07/20 07:21:26;;;;;;;4.23;3.63;;;;;;;27.04;43.47;97213.41;4991460;28;20211;-62
2022/07/20 07:23:55;;;;;;;4.97;4.07;;;;;;;27.21;42.24;97210.19;4985067;28;20203;-61
2022/07/20 07:26:23;;;;;;;4.47;3.37;;;;;;;27.27;41.09;97209.00;4988927;28;20657;-62
2022/07/20 07:28:51;;;;;;;6.07;4.10;;;;;;;27.29;42.73;97206.84;4968091;28;20212;-59
2022/07/20 07:31:21;;;;;;;4.23;3.87;;;;;;;27.40;43.01;97212.94;4944359;28;20228;-62
2022/07/20 07:33:49;;;;;;;4.17;3.83;;;;;;;27.39;43.08;97203.16;4985236;28;20204;-57
2022/07/20 07:36:19;;;;;;;3.80;3.50;;;;;;;27.43;41.13;97203.38;4989483;28;20748;-62
2022/07/20 07:38:47;;;;;;;4.23;3.93;;;;;;;27.67;41.10;97211.50;4982453;28;20690;-58
2022/07/20 07:41:16;;;;;;;9.57;4.20;;;;;;;27.76;43.10;97213.53;4988674;28;20215;-59
2022/07/20 07:43:44;;;;;;;4.33;3.93;;;;;;;27.93;40.21;97202.13;4970189;28;20231;-58
2022/07/20 07:46:12;;;;;;;5.27;3.70;;;;;;;28.09;39.74;97211.66;4998813;28;20237;-61
2022/07/20 07:48:41;;;;;;;4.60;4.20;;;;;;;28.15;40.07;97209.69;4961300;28;20750;-58
2022/07/20 07:51:09;;;;;;;8.20;4.60;;;;;;;28.21;39.54;97208.47;5006848;28;20234;-60
2022/07/20 07:53:39;;;;;;;4.27;3.97;;;;;;;28.31;39.52;97207.50;5006077;28;20205;-58
2022/07/20 07:56:07;;;;;;;7.33;4.13;;;;;;;28.37;39.43;97202.78;5005757;28;20228;-60
2022/07/20 07:58:35;;;;;;;7.23;3.87;;;;;;;28.43;39.64;97207.84;5010007;28;20215;-58
2022/07/20 08:01:03;;;;;;;6.83;4.93;;;;;;;28.55;38.87;97199.16;4989419;28;20370;-60
2022/07/20 08:03:32;;;;;;;4.73;4.20;;;;;;;28.69;38.39;97201.09;4962662;28;20221;-59
2022/07/20 08:06:00;;;;;;;5.77;4.90;;;;;;;28.91;39.29;97196.88;4998384;28;20279;-61
2022/07/20 08:08:28;;;;;;;5.60;4.23;;;;;;;28.97;37.39;97198.38;5004314;28;20215;-61
2022/07/20 08:10:59;;;;;;;4.73;4.00;;;;;;;29.03;39.19;97195.25;5001160;28;20281;-61
2022/07/20 08:13:27;;;;;;;5.40;4.17;;;;;;;29.13;37.55;97188.78;5007475;28;20245;-60
2022/07/20 08:15:55;;;;;;;5.43;3.93;;;;;;;29.05;36.81;97197.69;4983215;28;20848;-61
2022/07/20 08:18:24;;;;;;;4.00;3.60;;;;;;;29.16;37.07;97187.34;4961391;28;20217;-61
2022/07/20 08:20:52;;;;;;;3.50;3.30;;;;;;;29.34;35.67;97188.31;5004474;28;20625;-59
2022/07/20 08:23:20;;;;;;;4.30;3.83;;;;;;;29.45;35.09;97178.84;5002213;28;20668;-58
2022/07/20 08:25:48;;;;;;;9.37;4.37;;;;;;;29.62;36.37;97176.56;5004365;28;20204;-57
2022/07/20 08:28:20;;;;;;;3.90;3.53;;;;;;;29.73;34.88;97181.44;5005681;28;20529;-58
2022/07/20 08:30:50;;;;;;;7.43;3.93;;;;;;;29.87;35.28;97170.47;4986528;28;20208;-57
2022/07/20 08:33:22;;;;;;;6.63;3.77;;;;;;;29.92;35.70;97176.91;4959488;28;20473;-61
2022/07/20 08:35:50;;;;;;;8.50;3.90;;;;;;;29.98;34.30;97172.97;5000599;28;20246;-58
2022/07/20 08:38:19;;;;;;;27.30;5.30;;;;;;;30.03;34.52;97176.38;5003219;28;20212;-59
2022/07/20 08:40:47;;;;;;;3.63;3.27;;;;;;;29.89;33.75;97175.63;5006098;28;20657;-58
2022/07/20 08:43:17;;;;;;;5.07;3.30;;;;;;;29.54;34.88;97165.25;5005174;28;20215;-61
2022/07/20 08:45:48;;;;;;;3.50;3.20;;;;;;;29.30;35.76;97169.03;4988853;28;20612;-58
2022/07/20 08:48:18;;;;;;;3.67;3.37;;;;;;;29.34;34.93;97169.22;4960970;28;20212;-59
2022/07/20 08:50:47;;;;;;;3.70;3.30;;;;;;;29.54;35.56;97167.97;5003923;28;20505;-58
2022/07/20 08:53:16;;;;;;;3.50;3.20;;;;;;;29.82;35.46;97158.88;4952563;28;21108;-56
2022/07/20 08:55:44;;;;;;;3.53;3.23;;;;;;;29.95;34.86;97163.47;5000583;28;20308;-58
2022/07/20 08:58:13;;;;;;;3.20;3.00;;;;;;;30.26;33.55;97170.06;5001054;28;20232;-58
2022/07/20 09:00:42;;;;;;;3.83;3.20;;;;;;;30.44;34.24;97168.25;4988847;28;20215;-61
2022/07/20 09:03:13;;;;;;;3.70;3.40;;;;;;;30.58;32.63;97170.88;5002840;28;20209;-57
2022/07/20 09:05:42;;;;;;;4.63;3.57;;;;;;;30.58;33.63;97163.50;4983771;28;20209;-60
2022/07/20 09:08:13;;;;;;;3.67;3.33;;;;;;;30.68;33.43;97167.09;4954223;28;20259;-58
2022/07/20 09:10:46;;;;;;;3.30;3.00;;;;;;;30.83;32.14;97171.31;5000413;28;20266;-59
2022/07/20 09:13:19;;;;;;;3.53;3.33;;;;;;;30.87;32.39;97170.34;4999099;28;20425;-61
2022/07/20 09:15:48;;;;;;;3.30;3.10;;;;;;;30.97;33.08;97174.72;5003489;28;20640;-61
2022/07/20 09:18:20;;;;;;;4.07;3.40;;;;;;;30.99;32.63;97168.94;5002667;28;20374;-59
2022/07/20 09:20:50;;;;;;;3.47;3.27;;;;;;;31.09;32.36;97170.56;5006895;28;20262;-60
2022/07/20 09:23:20;;;;;;;6.47;4.20;;;;;;;31.13;32.46;97166.06;4942464;28;20286;-59
2022/07/20 09:25:58;;;;;;;3.47;3.27;;;;;;;31.21;32.20;97173.50;5008358;28;20219;-59
2022/07/20 09:28:45;;;;;;;4.00;3.70;;;;;;;31.22;32.31;97166.91;4997670;28;20465;-61
2022/07/20 09:31:18;;;;;;;4.07;3.67;;;;;;;31.42;31.76;97164.66;5001438;28;20325;-58
2022/07/20 09:33:52;;;;;;;7.07;4.17;;;;;;;31.38;30.76;97161.78;5003386;28;20717;-61
2022/07/20 09:36:24;;;;;;;5.13;3.13;;;;;;;31.51;31.61;97159.19;4997411;28;20231;-62
2022/07/20 09:38:52;;;;;;;4.47;3.73;;;;;;;31.55;31.61;97155.50;4943640;28;20208;-60
2022/07/20 09:41:23;;;;;;;3.70;3.40;;;;;;;31.72;31.59;97154.69;5004096;28;20677;-62
2022/07/20 09:43:51;;;;;;;4.20;3.50;;;;;;;31.77;31.20;97159.19;5005176;28;20288;-60
2022/07/20 09:46:22;;;;;;;4.00;3.23;;;;;;;31.82;31.09;97155.50;5002037;28;20232;-61
2022/07/20 09:48:53;;;;;;;4.17;3.77;;;;;;;31.68;30.88;97158.38;5006873;28;20204;-62
2022/07/20 09:51:25;;;;;;;7.83;3.27;;;;;;;31.88;31.20;97157.75;4997373;28;20204;-61
2022/07/20 09:54:01;;;;;;;3.40;3.13;;;;;;;31.98;31.34;97151.09;4955875;28;20660;-58
2022/07/20 09:56:29;;;;;;;4.57;3.70;;;;;;;31.86;31.28;97151.81;5006855;28;20898;-59
2022/07/20 09:58:59;;;;;;;4.20;3.83;;;;;;;32.07;30.44;97153.84;5003845;28;20236;-59
2022/07/20 10:01:28;;;;;;;3.37;3.07;;;;;;;32.15;30.04;97149.47;4999403;28;20197;-59
2022/07/20 10:04:00;;;;;;;3.93;3.70;;;;;;;32.13;30.40;97149.78;5003636;28;20678;-60
2022/07/20 10:06:29;;;;;;;3.97;3.67;;;;;;;32.13;30.86;97147.03;4997901;28;20491;-61
2022/07/20 10:09:02;;;;;;;3.20;3.00;;;;;;;32.15;31.97;97154.94;4991735;28;20213;-59
2022/07/20 10:11:30;;;;;;;3.63;3.43;;;;;;;32.14;31.32;97145.13;4985963;28;20442;-61
2022/07/20 10:13:59;;;;;;;3.90;3.50;;;;;;;32.09;30.94;97148.03;5010887;28;20210;-58
2022/07/20 10:16:29;;;;;;;4.63;3.57;;;;;;;32.18;31.85;97144.13;5003193;28;20388;-61
2022/07/20 10:18:59;;;;;;;3.53;3.33;;;;;;;32.31;31.84;97145.09;5005938;28;20204;-58
2022/07/20 10:21:43;;;;;;;4.20;3.80;;;;;;;32.40;31.41;97139.56;5005347;28;20206;-61
2022/07/20 10:24:19;;;;;;;3.53;3.23;;;;;;;32.20;31.58;97127.38;4971633;28;20216;-58
2022/07/20 10:26:49;;;;;;;4.00;3.70;;;;;;;32.22;31.74;97138.81;5007599;28;20316;-61
2022/07/20 10:29:32;;;;;;;3.70;3.43;;;;;;;32.29;31.48;97128.13;5003313;28;20205;-60
2022/07/20 10:32:12;;;;;;;3.67;3.30;;;;;;;32.40;31.44;97130.56;5005040;28;20210;-58
2022/07/20 10:34:44;;;;;;;4.07;3.87;;;;;;;32.32;30.70;97138.47;5008875;28;20205;-61
2022/07/20 10:37:29;;;;;;;3.70;3.50;;;;;;;32.56;30.35;97134.34;4998347;28;20579;-59
2022/07/20 10:40:12;;;;;;;4.00;3.70;;;;;;;32.69;31.75;97137.16;5005117;28;20259;-59
2022/07/20 10:42:42;;;;;;;3.93;3.63;;;;;;;32.74;30.52;97134.25;5005685;28;20209;-58
2022/07/20 10:45:31;;;;;;;12.87;4.17;;;;;;;32.74;30.91;97139.72;5004037;28;20234;-57
2022/07/20 10:48:03;;;;;;;3.70;3.40;;;;;;;32.80;31.29;97135.69;5005119;28;20696;-58
2022/07/20 10:50:38;;;;;;;4.53;4.10;;;;;;;32.85;29.97;97138.22;5008595;28;20711;-60
2022/07/20 10:53:31;;;;;;;4.37;3.60;;;;;;;32.69;30.45;97135.25;5006424;28;20751;-59
2022/07/20 10:56:09;;;;;;;3.70;3.40;;;;;;;32.67;30.20;97129.28;4977804;28;20210;-57
2022/07/20 10:58:40;;;;;;;4.20;3.80;;;;;;;32.69;31.15;97123.47;4998907;28;20713;-60
2022/07/20 11:01:09;;;;;;;3.60;3.40;;;;;;;32.58;31.13;97118.38;4956070;28;20224;-60
2022/07/20 11:03:40;;;;;;;4.30;3.93;;;;;;;32.61;32.49;97122.41;5007063;28;20988;-60
2022/07/20 11:06:13;;;;;;;4.47;4.03;;;;;;;32.67;31.26;97114.75;5002900;28;20219;-60
2022/07/20 11:08:43;;;;;;;6.50;3.77;;;;;;;32.66;30.83;97113.16;5002130;28;20251;-61
2022/07/20 11:11:15;;;;;;;5.17;3.60;;;;;;;32.83;31.17;97120.47;5007818;28;20212;-58
2022/07/20 11:13:46;;;;;;;9.20;3.93;;;;;;;32.76;30.60;97110.84;5006502;28;20224;-61
2022/07/20 11:16:14;;;;;;;4.73;3.70;;;;;;;33.01;30.33;97113.78;4935943;28;22657;-60
2022/07/20 11:18:43;;;;;;;4.07;3.77;;;;;;;33.15;29.98;97110.78;5006717;28;20225;-58
2022/07/20 11:21:12;;;;;;;5.67;3.90;;;;;;;33.14;28.76;97103.66;5002951;28;20206;-59
2022/07/20 11:23:43;;;;;;;4.07;3.77;;;;;;;33.27;31.05;97098.25;4995209;28;20935;-61
2022/07/20 11:26:12;;;;;;;6.47;3.70;;;;;;;33.42;28.94;97099.63;5006868;28;20498;-60
2022/07/20 11:28:45;;;;;;;3.70;3.50;;;;;;;33.31;28.06;97096.44;5007391;28;20201;-61
2022/07/20 11:31:16;;;;;;;3.87;3.60;;;;;;;33.32;27.90;97095.31;4967715;28;20745;-62
2022/07/20 11:33:47;;;;;;;5.00;4.10;;;;;;;33.33;28.47;97096.91;5005815;28;20321;-61
2022/07/20 11:36:18;;;;;;;5.00;3.77;;;;;;;33.44;29.52;97097.34;5005489;28;20237;-63
2022/07/20 11:38:49;;;;;;;5.77;3.57;;;;;;;33.49;28.84;97097.13;5005557;28;20277;-56
2022/07/20 11:41:20;;;;;;;4.03;3.73;;;;;;;33.36;27.59;97088.00;4999123;28;20503;-60
2022/07/20 11:43:49;;;;;;;4.43;3.97;;;;;;;33.49;28.91;97094.38;5002042;28;20251;-58
2022/07/20 11:46:22;;;;;;;5.33;3.30;;;;;;;33.63;28.60;97092.13;4959348;28;20329;-57